Orbital elements of BREEZE-M DEB
| Launched | 5 August 2012 |
| Flight ended | – |
| Launch site | Tyuratam Missile and Space Center, Kazakhstan (Also known as Baikonur Cosmodrome) |
| Owner | Commonwealth of Independent States (former USSR) |
| NORAD ID | 38922 |
| Date fetched |
Epoch osculation |
Inc. [°] |
Ecc. | RA asc node [hr] |
Arg Peri. [°] |
Mean anom [°] |
Mean motion [rev/day] |
Abs. mag |
| Date fetched |
Epoch osculation |
Inc. [°] |
Ecc. | RA asc node [hr] |
Arg Peri. [°] |
Mean anom [°] |
Mean motion [rev/day] |
Abs. mag |
| 2026 May 08 17:57 | 2026 May 05 09:06:03 | 50.0178 | 0.14224 | 8.3305 | 302.3971 | 44.6950 | 12.76572 | – |
| 2026 May 07 17:58 | 2026 May 05 09:06:03 | 50.0178 | 0.14224 | 8.3305 | 302.3971 | 44.6950 | 12.76572 | – |
| 2026 May 06 17:57 | 2026 May 05 09:06:03 | 50.0178 | 0.14224 | 8.3305 | 302.3971 | 44.6950 | 12.76572 | – |
| 2026 May 05 17:57 | 2026 May 05 09:06:03 | 50.0178 | 0.14224 | 8.3305 | 302.3971 | 44.6950 | 12.76572 | – |
| 2026 May 04 17:57 | 2026 Apr 30 12:34:45 | 50.0194 | 0.14244 | 9.4297 | 288.7535 | 44.6950 | 12.76572 | – |
| 2026 May 03 17:57 | 2026 Apr 30 12:34:45 | 50.0194 | 0.14244 | 9.4297 | 288.7535 | 44.6950 | 12.76572 | – |
| 2026 May 02 17:57 | 2026 Apr 30 12:34:45 | 50.0194 | 0.14244 | 9.4297 | 288.7535 | 44.6950 | 12.76572 | – |
| 2026 May 01 17:56 | 2026 Apr 30 12:34:45 | 50.0194 | 0.14244 | 9.4297 | 288.7535 | 44.6950 | 12.76572 | – |
| 2026 Apr 30 17:56 | 2026 Apr 30 12:34:45 | 50.0194 | 0.14244 | 9.4297 | 288.7535 | 44.6950 | 12.76572 | – |
| 2026 Apr 29 17:57 | 2026 Apr 24 11:49:07 | 50.0216 | 0.14266 | 10.7941 | 271.8227 | 44.6950 | 12.76572 | – |
| 2026 Apr 28 17:56 | 2026 Apr 24 11:49:07 | 50.0216 | 0.14266 | 10.7941 | 271.8227 | 44.6950 | 12.76572 | – |
| 2026 Apr 27 17:58 | 2026 Apr 24 11:49:07 | 50.0216 | 0.14266 | 10.7941 | 271.8227 | 44.6950 | 12.76572 | – |
| 2026 Apr 26 17:58 | 2026 Apr 24 11:49:07 | 50.0216 | 0.14266 | 10.7941 | 271.8227 | 44.6950 | 12.76572 | – |
| 2026 Apr 25 17:58 | 2026 Apr 24 11:49:07 | 50.0216 | 0.14266 | 10.7941 | 271.8227 | 44.6950 | 12.76572 | – |
| 2026 Apr 24 17:59 | 2026 Apr 24 11:49:07 | 50.0216 | 0.14266 | 10.7941 | 271.8227 | 44.6950 | 12.76572 | – |
| 2026 Apr 23 17:57 | 2026 Apr 19 11:27:39 | 50.0212 | 0.14282 | 11.9277 | 257.7522 | 44.6950 | 12.76572 | – |
| 2026 Apr 22 17:57 | 2026 Apr 19 11:27:39 | 50.0212 | 0.14282 | 11.9277 | 257.7522 | 44.6950 | 12.76572 | – |
| 2026 Apr 21 17:57 | 2026 Apr 19 11:27:39 | 50.0212 | 0.14282 | 11.9277 | 257.7522 | 44.6950 | 12.76572 | – |
| 2026 Apr 20 17:57 | 2026 Apr 19 11:27:39 | 50.0212 | 0.14282 | 11.9277 | 257.7522 | 44.6950 | 12.76572 | – |
| 2026 Apr 19 17:58 | 2026 Apr 19 11:27:39 | 50.0212 | 0.14282 | 11.9277 | 257.7522 | 44.6950 | 12.76572 | – |
| 2026 Apr 18 17:56 | 2026 Apr 13 04:58:06 | 50.0213 | 0.14302 | 13.3441 | 240.1757 | 44.6950 | 12.76572 | – |
| 2026 Apr 16 17:57 | 2026 Apr 13 04:58:06 | 50.0213 | 0.14302 | 13.3441 | 240.1757 | 44.6950 | 12.76572 | – |
| 2026 Apr 14 17:57 | 2026 Apr 13 04:58:06 | 50.0213 | 0.14302 | 13.3441 | 240.1757 | 44.6950 | 12.76572 | – |
| 2026 Apr 13 17:57 | 2026 Apr 13 04:58:06 | 50.0213 | 0.14302 | 13.3441 | 240.1757 | 44.6950 | 12.76572 | – |
| 2026 Apr 12 17:57 | 2026 Apr 08 10:10:57 | 50.0186 | 0.14322 | 14.4237 | 226.7735 | 44.6950 | 12.76572 | – |
| 2026 Apr 11 17:57 | 2026 Apr 08 10:10:57 | 50.0186 | 0.14322 | 14.4237 | 226.7735 | 44.6950 | 12.76572 | – |